createdAt,value
2022-11-05T00:00:29.924Z,3.83
2022-11-05T00:03:16.906Z,3.70
2022-11-05T00:06:03.237Z,3.80
2022-11-05T00:08:48.609Z,4.27
2022-11-05T00:11:18.224Z,3.03
2022-11-05T00:14:03.967Z,3.27
2022-11-05T00:16:46.587Z,2.90
2022-11-05T00:19:16.695Z,3.00
2022-11-05T00:22:01.948Z,3.20
2022-11-05T00:24:47.158Z,3.00
2022-11-05T00:27:14.774Z,2.90
2022-11-05T00:29:42.341Z,3.73
2022-11-05T00:32:09.948Z,3.30
2022-11-05T00:34:38.908Z,3.33
2022-11-05T00:37:06.846Z,3.10
2022-11-05T00:39:34.448Z,3.27
2022-11-05T00:42:19.581Z,3.27
2022-11-05T00:45:02.534Z,3.00
2022-11-05T00:47:47.788Z,3.40
2022-11-05T00:50:17.525Z,2.80
2022-11-05T00:52:57.578Z,2.43
2022-11-05T00:55:34.221Z,2.73
2022-11-05T00:58:03.832Z,3.00
2022-11-05T01:00:33.010Z,3.13
2022-11-05T01:03:02.596Z,2.37
2022-11-05T01:05:33.880Z,2.67
2022-11-05T01:08:01.919Z,2.60
2022-11-05T01:10:30.198Z,2.50
2022-11-05T01:12:58.685Z,2.80
2022-11-05T01:15:26.341Z,3.07
2022-11-05T01:17:53.969Z,2.93
2022-11-05T01:20:21.626Z,2.40
2022-11-05T01:22:50.538Z,2.80
2022-11-05T01:25:18.224Z,3.00
2022-11-05T01:27:46.014Z,2.90
2022-11-05T01:30:14.750Z,2.53
2022-11-05T01:32:42.516Z,2.77
2022-11-05T01:35:14.234Z,3.23
2022-11-05T01:37:42.118Z,2.60
2022-11-05T01:40:12.495Z,2.90
2022-11-05T01:42:40.078Z,3.23
2022-11-05T01:45:15.003Z,3.40
2022-11-05T01:48:02.586Z,3.57
2022-11-05T01:50:38.353Z,3.47
2022-11-05T01:53:13.567Z,3.60
2022-11-05T01:55:46.945Z,3.47
2022-11-05T01:58:17.733Z,3.90
2022-11-05T02:00:45.651Z,4.47
2022-11-05T02:03:16.136Z,4.23
2022-11-05T02:05:44.397Z,5.03
2022-11-05T02:08:17.473Z,4.70
2022-11-05T02:10:46.876Z,4.63
2022-11-05T02:13:14.581Z,4.53
2022-11-05T02:15:52.079Z,5.17
2022-11-05T02:18:30.697Z,5.10
2022-11-05T02:21:15.242Z,5.63
2022-11-05T02:24:24.458Z,5.40
2022-11-05T02:27:11.043Z,5.37
2022-11-05T02:30:13.082Z,6.67
2022-11-05T02:32:57.747Z,5.73
2022-11-05T02:35:38.693Z,6.27
2022-11-05T02:38:10.032Z,6.70
2022-11-05T02:40:46.845Z,6.90
2022-11-05T02:43:23.353Z,7.13
2022-11-05T02:46:03.989Z,7.20
2022-11-05T02:48:43.896Z,6.90
2022-11-05T02:51:18.815Z,6.30
2022-11-05T02:53:51.931Z,7.83
2022-11-05T02:56:24.966Z,6.87
2022-11-05T02:58:52.592Z,6.30
2022-11-05T03:01:20.195Z,6.93
2022-11-05T03:03:54.950Z,6.77
2022-11-05T03:06:46.628Z,7.23
2022-11-05T03:09:30.931Z,6.37
2022-11-05T03:12:09.114Z,6.30
2022-11-05T03:14:44.573Z,5.67
2022-11-05T03:17:22.387Z,5.00
2022-11-05T03:20:02.197Z,6.17
2022-11-05T03:22:35.307Z,5.33
2022-11-05T03:25:06.493Z,5.07
2022-11-05T03:27:38.206Z,5.63
2022-11-05T03:30:11.748Z,5.27
2022-11-05T03:32:42.891Z,4.93
2022-11-05T03:35:17.206Z,4.43
2022-11-05T03:37:48.223Z,4.33
2022-11-05T03:40:19.267Z,4.10
2022-11-05T03:42:50.638Z,4.13
2022-11-05T03:45:23.580Z,3.73
2022-11-05T03:47:54.283Z,4.00
2022-11-05T03:50:28.473Z,3.20
2022-11-05T03:53:00.988Z,3.70
2022-11-05T03:55:36.130Z,2.83
2022-11-05T03:58:05.912Z,2.80
2022-11-05T04:00:34.531Z,3.27
2022-11-05T04:03:02.206Z,2.90
2022-11-05T04:05:31.536Z,2.80
2022-11-05T04:08:16.811Z,2.93
2022-11-05T04:11:01.354Z,3.73
2022-11-05T04:13:29.549Z,3.13
2022-11-05T04:16:15.652Z,3.13
2022-11-05T04:18:44.121Z,3.00
2022-11-05T04:21:38.811Z,2.90
2022-11-05T04:24:09.979Z,2.93
2022-11-05T04:26:39.118Z,2.63
2022-11-05T04:29:24.915Z,2.93
2022-11-05T04:31:52.939Z,2.37
2022-11-05T04:34:21.982Z,2.70
2022-11-05T04:36:51.631Z,2.20
2022-11-05T04:39:20.038Z,2.63
2022-11-05T04:41:48.505Z,2.33
2022-11-05T04:44:16.308Z,2.40
2022-11-05T04:46:44.126Z,2.20
2022-11-05T04:49:11.742Z,2.50
2022-11-05T04:51:39.302Z,2.30
2022-11-05T04:54:08.245Z,2.33
2022-11-05T04:56:35.850Z,2.10
2022-11-05T04:59:03.484Z,1.70
2022-11-05T05:01:31.180Z,2.07
2022-11-05T05:03:58.882Z,2.10
2022-11-05T05:06:26.673Z,1.83
2022-11-05T05:08:54.355Z,1.73
2022-11-05T05:11:23.272Z,1.90
2022-11-05T05:13:51.517Z,1.93
2022-11-05T05:16:22.096Z,2.07
2022-11-05T05:18:50.754Z,1.80
2022-11-05T05:21:37.655Z,1.67
2022-11-05T05:24:05.998Z,1.80
2022-11-05T05:26:34.932Z,1.70
2022-11-05T05:29:02.562Z,1.83
2022-11-05T05:31:30.178Z,1.73
2022-11-05T05:33:58.457Z,1.90
2022-11-05T05:36:26.035Z,1.90
2022-11-05T05:38:53.748Z,2.10
2022-11-05T05:41:21.798Z,2.00
2022-11-05T05:43:51.049Z,2.30
2022-11-05T05:46:19.851Z,2.33
2022-11-05T05:48:50.502Z,2.30
2022-11-05T05:51:19.144Z,2.10
2022-11-05T05:53:46.909Z,2.53
2022-11-05T05:56:19.119Z,2.50
2022-11-05T05:58:47.030Z,2.90
2022-11-05T06:01:19.593Z,2.57
2022-11-05T06:03:48.217Z,2.70
2022-11-05T06:06:19.496Z,3.40
2022-11-05T06:08:47.415Z,3.40
2022-11-05T06:11:15.150Z,3.30
2022-11-05T06:13:42.768Z,3.90
2022-11-05T06:16:11.646Z,3.33
2022-11-05T06:18:40.638Z,3.63
2022-11-05T06:21:10.773Z,3.80
2022-11-05T06:23:40.238Z,3.37
2022-11-05T06:26:09.748Z,3.13
2022-11-05T06:28:37.376Z,3.33
2022-11-05T06:31:05.571Z,2.90
2022-11-05T06:33:33.231Z,3.60
2022-11-05T06:36:02.897Z,3.30
2022-11-05T06:38:33.598Z,2.83
2022-11-05T06:41:07.140Z,3.57
2022-11-05T06:43:36.841Z,3.63
2022-11-05T06:46:04.785Z,3.60
2022-11-05T06:48:32.587Z,3.50
2022-11-05T06:51:00.227Z,3.60
2022-11-05T06:53:31.450Z,4.40
2022-11-05T06:56:02.447Z,3.80
2022-11-05T06:58:30.869Z,4.47
2022-11-05T07:01:01.297Z,4.47
2022-11-05T07:03:28.955Z,4.77
2022-11-05T07:05:59.025Z,4.47
2022-11-05T07:08:26.921Z,4.60
2022-11-05T07:10:55.872Z,5.20
2022-11-05T07:13:23.629Z,5.07
2022-11-05T07:15:51.205Z,5.47
2022-11-05T07:18:18.865Z,5.30
2022-11-05T07:20:46.505Z,6.00
2022-11-05T07:23:15.608Z,6.60
2022-11-05T07:25:44.136Z,5.33
2022-11-05T07:28:14.351Z,5.57
2022-11-05T07:30:42.045Z,5.70
2022-11-05T07:33:10.633Z,5.97
2022-11-05T07:35:38.458Z,5.63
2022-11-05T07:38:06.054Z,5.70
2022-11-05T07:40:33.667Z,5.33
2022-11-05T07:43:02.934Z,5.77
2022-11-05T07:45:32.381Z,5.13
2022-11-05T07:48:01.643Z,5.47
2022-11-05T07:50:31.946Z,5.60
2022-11-05T07:53:03.142Z,5.53
2022-11-05T07:55:31.166Z,5.63
2022-11-05T07:57:59.070Z,6.50
2022-11-05T08:00:27.869Z,5.67
2022-11-05T08:03:09.264Z,5.90
2022-11-05T08:05:38.831Z,5.67
2022-11-05T08:08:07.927Z,5.33
2022-11-05T08:10:36.050Z,5.43
2022-11-05T08:13:03.778Z,5.90
2022-11-05T08:15:32.130Z,6.47
2022-11-05T08:18:02.985Z,5.83
2022-11-05T08:20:31.467Z,5.63
2022-11-05T08:22:59.153Z,5.37
2022-11-05T08:25:27.197Z,5.13
2022-11-05T08:27:58.858Z,5.80
2022-11-05T08:30:27.246Z,5.13
2022-11-05T08:32:58.245Z,5.30
2022-11-05T08:35:28.138Z,5.70
2022-11-05T08:37:58.938Z,5.53
2022-11-05T08:40:26.843Z,5.20
2022-11-05T08:42:54.642Z,5.30
2022-11-05T08:45:22.235Z,5.70
2022-11-05T08:47:49.767Z,5.20
2022-11-05T08:50:17.707Z,5.50
2022-11-05T08:52:46.679Z,5.33
2022-11-05T08:55:14.258Z,4.77
2022-11-05T08:57:41.879Z,5.20
2022-11-05T09:00:11.087Z,4.27
2022-11-05T09:02:38.755Z,4.50
2022-11-05T09:05:06.808Z,5.00
2022-11-05T09:07:34.552Z,4.07
2022-11-05T09:10:03.500Z,5.17
2022-11-05T09:12:31.169Z,4.60
2022-11-05T09:14:58.850Z,4.50
2022-11-05T09:17:26.467Z,5.00
2022-11-05T09:19:54.118Z,4.80
2022-11-05T09:22:21.705Z,4.70
2022-11-05T09:24:49.293Z,5.10
2022-11-05T09:27:18.863Z,4.70
2022-11-05T09:29:46.444Z,4.50
2022-11-05T09:32:18.358Z,4.23
2022-11-05T09:34:45.983Z,4.40
2022-11-05T09:37:13.595Z,4.60
2022-11-05T09:39:41.183Z,4.03
2022-11-05T09:42:10.892Z,4.33
2022-11-05T09:44:44.076Z,3.70
2022-11-05T09:47:16.748Z,3.97
2022-11-05T09:49:50.258Z,4.23
2022-11-05T09:52:22.438Z,3.70
2022-11-05T09:54:51.408Z,3.50
2022-11-05T09:57:25.097Z,3.60
2022-11-05T09:59:57.837Z,3.43
2022-11-05T10:02:28.673Z,3.50
2022-11-05T10:05:00.014Z,3.67
2022-11-05T10:07:32.884Z,3.97
2022-11-05T10:10:04.372Z,3.17
2022-11-05T10:12:40.476Z,2.93
2022-11-05T10:15:15.177Z,3.13
2022-11-05T10:17:48.692Z,2.80
2022-11-05T10:20:23.808Z,2.97
2022-11-05T10:22:57.552Z,2.33
2022-11-05T10:25:37.878Z,3.03
2022-11-05T10:28:06.974Z,2.80
2022-11-05T10:30:35.311Z,2.83
2022-11-05T10:33:07.564Z,3.00
2022-11-05T10:35:48.630Z,2.95
2022-11-05T10:38:16.634Z,2.87
2022-11-05T10:40:59.461Z,2.87
2022-11-05T10:43:36.331Z,2.83
2022-11-05T10:46:22.514Z,3.73
2022-11-05T10:49:00.326Z,2.47
2022-11-05T10:51:28.425Z,3.30
2022-11-05T10:54:01.843Z,1.80
2022-11-05T10:56:33.716Z,2.08
2022-11-05T10:59:07.956Z,2.60
2022-11-05T11:01:39.648Z,1.77
2022-11-05T11:04:25.838Z,1.98
2022-11-05T11:06:56.608Z,2.30
2022-11-05T11:09:27.648Z,2.20
2022-11-05T11:12:02.481Z,1.73
2022-11-05T11:14:30.812Z,1.73
2022-11-05T11:17:18.572Z,2.45
2022-11-05T11:19:46.498Z,1.90
2022-11-05T11:22:19.716Z,1.70
2022-11-05T11:24:49.372Z,1.65
2022-11-05T11:27:22.534Z,1.40
2022-11-05T11:29:56.033Z,1.70
2022-11-05T11:32:28.619Z,1.50
2022-11-05T11:34:58.398Z,1.60
2022-11-05T11:37:30.050Z,1.50
2022-11-05T11:40:01.320Z,1.05
2022-11-05T11:42:32.740Z,1.40
2022-11-05T11:45:05.218Z,1.40
2022-11-05T11:47:33.762Z,1.30
2022-11-05T11:50:02.938Z,1.30
2022-11-05T11:52:33.042Z,1.30
2022-11-05T11:55:22.562Z,1.97
2022-11-05T11:57:53.408Z,1.90
2022-11-05T12:00:26.788Z,2.00
2022-11-05T12:03:09.118Z,2.03
2022-11-05T12:05:46.156Z,1.70
2022-11-05T12:08:36.693Z,1.90
2022-11-05T12:11:11.647Z,2.00
2022-11-05T12:14:02.207Z,1.90
2022-11-05T12:16:46.463Z,2.40
2022-11-05T12:19:25.589Z,2.77
2022-11-05T12:22:05.127Z,2.40
2022-11-05T12:25:07.477Z,1.87
2022-11-05T12:27:49.005Z,2.10
2022-11-05T12:30:19.756Z,2.00
2022-11-05T12:33:13.132Z,1.60
2022-11-05T12:35:57.619Z,1.30
2022-11-05T12:38:42.125Z,1.30
2022-11-05T12:41:22.061Z,1.33
2022-11-05T12:44:02.867Z,1.43
2022-11-05T12:46:38.696Z,1.30
2022-11-05T12:49:33.674Z,1.07
2022-11-05T12:52:11.598Z,1.30
2022-11-05T12:54:53.464Z,1.30
2022-11-05T12:57:22.916Z,1.50
2022-11-05T12:59:54.784Z,1.70
2022-11-05T13:02:30.649Z,1.70
2022-11-05T13:05:05.045Z,1.50
2022-11-05T13:07:36.934Z,1.67
2022-11-05T13:10:09.143Z,1.50
2022-11-05T13:12:40.987Z,1.53
2022-11-05T13:15:22.837Z,2.03
2022-11-05T13:17:56.267Z,1.97
2022-11-05T13:20:27.457Z,2.13
2022-11-05T13:22:59.920Z,1.87
2022-11-05T13:25:30.488Z,1.80
2022-11-05T13:28:07.188Z,1.87
2022-11-05T13:30:38.332Z,2.00
2022-11-05T13:33:16.128Z,2.10
2022-11-05T13:35:48.750Z,2.57
2022-11-05T13:38:40.722Z,2.80
2022-11-05T13:41:26.582Z,2.97
2022-11-05T13:44:23.536Z,3.13
2022-11-05T13:47:20.688Z,3.23
2022-11-05T13:50:20.307Z,3.23
2022-11-05T13:53:05.238Z,3.20
2022-11-05T13:55:48.981Z,3.17
2022-11-05T13:58:46.456Z,3.87
2022-11-05T14:01:27.304Z,3.17
2022-11-05T14:03:57.471Z,3.70
2022-11-05T14:06:29.439Z,3.80
2022-11-05T14:09:01.244Z,3.73
2022-11-05T14:11:31.822Z,4.13
2022-11-05T14:14:02.510Z,4.00
2022-11-05T14:16:48.098Z,4.03
2022-11-05T14:19:31.091Z,4.63
2022-11-05T14:22:00.896Z,4.63
2022-11-05T14:24:42.501Z,4.80
2022-11-05T14:27:45.433Z,4.70
2022-11-05T14:30:42.133Z,4.83
2022-11-05T14:33:32.952Z,5.57
2022-11-05T14:36:36.232Z,5.30
2022-11-05T14:39:24.649Z,6.00
2022-11-05T14:42:02.811Z,6.13
2022-11-05T14:44:33.636Z,5.63
2022-11-05T14:47:04.353Z,5.13
2022-11-05T14:49:36.707Z,5.43
2022-11-05T14:52:08.993Z,5.73
2022-11-05T14:54:43.923Z,5.20
2022-11-05T14:57:14.070Z,5.30
2022-11-05T15:00:03.071Z,5.20
2022-11-05T15:02:36.892Z,5.33
2022-11-05T15:05:40.153Z,5.83
2022-11-05T15:08:39.271Z,6.97
2022-11-05T15:11:14.444Z,6.10
2022-11-05T15:13:51.810Z,5.90
2022-11-05T15:16:23.954Z,6.03
2022-11-05T15:18:53.528Z,5.63
2022-11-05T15:21:22.431Z,6.20
2022-11-05T15:23:54.170Z,6.40
2022-11-05T15:26:27.423Z,6.23
2022-11-05T15:28:57.106Z,5.63
2022-11-05T15:31:31.384Z,6.00
2022-11-05T15:34:19.351Z,5.47
2022-11-05T15:36:53.180Z,6.53
2022-11-05T15:39:31.029Z,4.47
2022-11-05T15:42:02.658Z,5.80
2022-11-05T15:44:32.994Z,6.00
2022-11-05T15:47:09.083Z,5.20
2022-11-05T15:49:37.508Z,5.83
2022-11-05T15:52:05.825Z,6.03
2022-11-05T15:54:34.036Z,6.10
2022-11-05T15:57:03.711Z,6.20
2022-11-05T15:59:31.972Z,8.03
2022-11-05T16:02:06.729Z,8.13
2022-11-05T16:04:35.972Z,7.07
2022-11-05T16:07:10.388Z,6.43
2022-11-05T16:09:41.623Z,5.07
2022-11-05T16:12:15.946Z,5.80
2022-11-05T16:14:43.661Z,5.93
2022-11-05T16:17:19.522Z,6.23
2022-11-05T16:19:47.705Z,5.33
2022-11-05T16:22:15.525Z,5.77
2022-11-05T16:24:43.588Z,5.20
2022-11-05T16:27:19.453Z,5.17
2022-11-05T16:29:51.174Z,5.17
2022-11-05T16:32:28.524Z,5.30
2022-11-05T16:35:00.347Z,5.30
2022-11-05T16:37:28.936Z,5.53
2022-11-05T16:39:56.689Z,5.53
2022-11-05T16:42:40.169Z,5.17
2022-11-05T16:45:11.380Z,6.13
2022-11-05T16:47:39.209Z,6.17
2022-11-05T16:50:18.709Z,5.07
2022-11-05T16:52:47.024Z,5.13
2022-11-05T16:55:15.841Z,4.40
2022-11-05T16:57:47.573Z,5.03
2022-11-05T17:00:17.903Z,5.30
2022-11-05T17:02:46.245Z,5.27
2022-11-05T17:05:19.712Z,4.43
2022-11-05T17:07:48.034Z,5.17
2022-11-05T17:10:15.824Z,5.63
2022-11-05T17:12:46.063Z,5.10
2022-11-05T17:15:24.916Z,4.73
2022-11-05T17:17:53.727Z,5.50
2022-11-05T17:20:28.779Z,6.80
2022-11-05T17:22:57.423Z,5.30
2022-11-05T17:25:26.015Z,8.03
2022-11-05T17:27:55.208Z,8.77
2022-11-05T17:30:24.430Z,7.80
2022-11-05T17:32:52.201Z,6.03
2022-11-05T17:35:20.248Z,5.30
2022-11-05T17:37:48.206Z,5.47
2022-11-05T17:40:18.385Z,5.10
2022-11-05T17:42:46.666Z,7.77
2022-11-05T17:45:16.265Z,7.47
2022-11-05T17:47:44.540Z,6.33
2022-11-05T17:50:14.051Z,7.27
2022-11-05T17:52:41.735Z,6.57
2022-11-05T17:55:16.412Z,6.63
2022-11-05T17:57:45.713Z,7.03
2022-11-05T18:00:16.702Z,6.43
2022-11-05T18:02:45.969Z,6.13
2022-11-05T18:05:14.289Z,7.67
2022-11-05T18:07:42.048Z,6.87
2022-11-05T18:10:10.561Z,7.10
2022-11-05T18:12:38.424Z,6.93
2022-11-05T18:15:07.297Z,7.60
2022-11-05T18:17:36.757Z,7.20
2022-11-05T18:20:09.916Z,7.90
2022-11-05T18:22:40.853Z,7.23
2022-11-05T18:25:12.356Z,7.77
2022-11-05T18:27:40.776Z,6.83
2022-11-05T18:30:10.528Z,7.53
2022-11-05T18:32:39.954Z,6.77
2022-11-05T18:35:08.095Z,7.97
2022-11-05T18:37:35.698Z,7.30
2022-11-05T18:40:03.337Z,8.07
2022-11-05T18:42:31.238Z,7.13
2022-11-05T18:44:58.826Z,6.87
2022-11-05T18:47:26.946Z,7.13
2022-11-05T18:49:55.880Z,7.23
2022-11-05T18:52:23.693Z,7.17
2022-11-05T18:54:51.300Z,7.23
2022-11-05T18:57:18.949Z,7.20
2022-11-05T18:59:46.675Z,7.23
2022-11-05T19:02:15.458Z,7.63
2022-11-05T19:05:06.579Z,8.03
2022-11-05T19:07:36.822Z,8.30
2022-11-05T19:10:05.139Z,8.13
2022-11-05T19:12:33.628Z,8.67
2022-11-05T19:15:02.937Z,8.77
2022-11-05T19:17:32.344Z,8.93
2022-11-05T19:19:59.956Z,7.90
2022-11-05T19:22:27.733Z,8.80
2022-11-05T19:24:56.840Z,8.50
2022-11-05T19:27:24.461Z,8.77
2022-11-05T19:29:52.128Z,9.67
2022-11-05T19:32:21.154Z,9.43
2022-11-05T19:34:48.764Z,9.20
2022-11-05T19:37:16.574Z,9.63
2022-11-05T19:39:44.256Z,9.63
2022-11-05T19:42:13.213Z,9.77
2022-11-05T19:44:41.510Z,10.23
2022-11-05T19:47:09.159Z,11.20
2022-11-05T19:49:36.828Z,11.93
2022-11-05T19:52:04.590Z,11.50
2022-11-05T19:54:32.244Z,10.40
2022-11-05T19:56:59.941Z,10.17
2022-11-05T19:59:29.187Z,11.10
2022-11-05T20:01:56.986Z,10.07
2022-11-05T20:04:24.982Z,10.60
2022-11-05T20:06:52.670Z,10.60
2022-11-05T20:09:22.140Z,9.67
2022-11-05T20:11:51.048Z,10.37
2022-11-05T20:14:18.814Z,9.13
2022-11-05T20:16:47.996Z,9.90
2022-11-05T20:19:17.767Z,9.70
2022-11-05T20:21:46.068Z,9.20
2022-11-05T20:24:20.541Z,9.87
2022-11-05T20:26:52.287Z,8.67
2022-11-05T20:29:20.214Z,8.87
2022-11-05T20:31:49.351Z,8.80
2022-11-05T20:34:16.922Z,8.70
2022-11-05T20:36:44.608Z,8.23
2022-11-05T20:39:12.709Z,9.30
2022-11-05T20:41:40.377Z,8.60
2022-11-05T20:44:08.075Z,7.47
2022-11-05T20:46:35.680Z,7.93
2022-11-05T20:49:04.839Z,7.93
2022-11-05T20:51:32.532Z,8.00
2022-11-05T20:54:01.822Z,8.20
2022-11-05T20:56:31.361Z,8.13
2022-11-05T20:59:00.339Z,7.93
2022-11-05T21:01:29.328Z,7.77
2022-11-05T21:03:57.374Z,8.00
2022-11-05T21:06:26.830Z,8.43
2022-11-05T21:08:54.499Z,8.27
2022-11-05T21:11:22.124Z,7.90
2022-11-05T21:13:50.059Z,9.50
2022-11-05T21:16:19.224Z,8.13
2022-11-05T21:18:47.731Z,8.27
2022-11-05T21:21:18.155Z,8.60
2022-11-05T21:23:47.788Z,7.47
2022-11-05T21:26:17.815Z,8.73
2022-11-05T21:28:45.581Z,7.97
2022-11-05T21:31:13.213Z,9.93
2022-11-05T21:33:40.913Z,8.37
2022-11-05T21:36:10.678Z,8.40
2022-11-05T21:38:38.459Z,7.47
2022-11-05T21:41:08.385Z,7.97
2022-11-05T21:43:36.781Z,6.80
2022-11-05T21:46:05.580Z,7.80
2022-11-05T21:48:33.843Z,7.30
2022-11-05T21:51:19.123Z,6.97
2022-11-05T21:54:04.492Z,6.83
2022-11-05T21:56:51.609Z,6.17
2022-11-05T21:59:38.333Z,7.33
2022-11-05T22:02:06.586Z,8.30
2022-11-05T22:04:36.775Z,7.37
2022-11-05T22:07:04.958Z,7.83
2022-11-05T22:09:32.649Z,7.87
2022-11-05T22:12:01.987Z,7.07
2022-11-05T22:14:30.063Z,6.57
2022-11-05T22:16:58.206Z,7.70
2022-11-05T22:19:26.515Z,7.20
2022-11-05T22:21:54.246Z,7.57
2022-11-05T22:24:22.164Z,6.80
2022-11-05T22:26:49.981Z,6.80
2022-11-05T22:29:18.898Z,6.60
2022-11-05T22:31:46.567Z,6.13
2022-11-05T22:34:14.310Z,6.73
2022-11-05T22:36:42.016Z,6.60
2022-11-05T22:39:10.723Z,6.47
2022-11-05T22:41:38.561Z,7.83
2022-11-05T22:44:06.435Z,6.43
2022-11-05T22:46:35.509Z,7.00
2022-11-05T22:49:03.149Z,6.80
2022-11-05T22:51:32.721Z,6.27
2022-11-05T22:54:01.133Z,6.70
2022-11-05T22:56:30.769Z,7.40
2022-11-05T22:59:02.490Z,6.73
2022-11-05T23:01:30.451Z,7.47
2022-11-05T23:04:00.437Z,7.10
2022-11-05T23:06:49.787Z,6.90
2022-11-05T23:09:40.305Z,6.43
2022-11-05T23:12:18.974Z,7.00
2022-11-05T23:14:46.673Z,6.67
2022-11-05T23:17:31.907Z,6.77
2022-11-05T23:20:18.467Z,7.10
2022-11-05T23:23:03.688Z,6.60
2022-11-05T23:25:31.442Z,6.77
2022-11-05T23:27:59.047Z,7.10
2022-11-05T23:30:27.898Z,7.30
2022-11-05T23:32:55.589Z,7.40
2022-11-05T23:35:38.701Z,7.47
2022-11-05T23:38:23.374Z,7.57
2022-11-05T23:41:08.806Z,7.53
2022-11-05T23:43:54.042Z,7.90
2022-11-05T23:46:39.396Z,7.43
2022-11-05T23:49:08.429Z,7.60
2022-11-05T23:51:37.537Z,6.57
2022-11-05T23:54:05.342Z,6.73
2022-11-05T23:56:33.199Z,7.53
2022-11-05T23:59:00.815Z,7.20
